If you wish to contribute or participate in the discussions about articles you are invited to join SKYbrary as a registered user

 Actions

Hangzhou Xiaoshan International Airport

From SKYbrary Wiki

ZSHC
Airport
ICAO: ZSHC – IATA: HGH
Summary
Name Hangzhou Xiaoshan International Airport
Region Asia and Pacific
Territory China CN.gif
Location Xiaoshan, Zhejiang
Serving Hangzhou
Elevation 7.01 m <br />23 ft <br />23 ft7.01 m <br />
Coordinates 30° 13' 46.00" N, 120° 26' 4.00" E
Runways
Designator Length Width Surface ROPS
7/25 3600 m11,811.024 ft <br /> 45 m147.638 ft <br /> CON yes/yes


METAR
Observation ZSHC 050500Z 08005MPS 9999 SCT026 32/26 Q1001 NOSIG
Station Hangzhou
Date/Time 05 August 2021 05:00:00
Wind direction 80°
Wind speed kts
Lowest cloud amount scattered clouds
Temperature 32°C
Dew point 26°C
Humidity 70%
QNH 1001 hPa
Weather condition n/a

Hangzhou Xiaoshan International Airport is the principal airport serving Hangzhou, a major city in the Yangtze River Delta region of the People's Republic of China and the provincial capital of Zhejiang.

Maps

Terrain

Loading map...

Airport Layout

Loading map...


Accidents & Serious Incidents at or in vicinity of ZSHC

None on SKYbrary